SAS031 EKCH-LSZH
Flight info
| Callsign | SAS031 |
|---|---|
| Flight time | 2h 7m |
| Altitude | 38000 |
| Route | NEXEN T503 GIMRU DCT MICOS DCT TOLGI DCT SWALM DCT OMOGI T721 RILAX |
| Aircraft | B738/M-SDFGHIRWXYZ/LB1 |
Departure
| Time | 2026-05-05 18:03 |
|---|---|
| Airport | Copenhagen Kastrup Airport (EKCH) |
Arrival
| Time | 2026-05-05 20:10 |
|---|---|
| Airport | Zürich Airport (LSZH) |
| Time | Latitude | Longitude | Altitude | Speed | Heading |
|---|---|---|---|---|---|
| 2026-05-05 17:29 | 55.62605 | 12.64880 | 16 ft | 0 kts | 91° |
| 2026-05-05 17:52 | 55.62605 | 12.64870 | 16 ft | 3 kts | 91° |
| 2026-05-05 17:52 | 55.62606 | 12.64837 | 16 ft | 3 kts | 91° |
| 2026-05-05 17:53 | 55.62606 | 12.64804 | 16 ft | 3 kts | 96° |
| 2026-05-05 17:53 | 55.62613 | 12.64775 | 16 ft | 3 kts | 156° |
| 2026-05-05 17:53 | 55.62618 | 12.64771 | 16 ft | 0 kts | 176° |
| 2026-05-05 17:54 | 55.62604 | 12.64771 | 16 ft | 2 kts | 179° |
| 2026-05-05 17:54 | 55.62573 | 12.64771 | 16 ft | 5 kts | 180° |
| 2026-05-05 17:54 | 55.62548 | 12.64772 | 16 ft | 2 kts | 178° |
| 2026-05-05 17:55 | 55.62523 | 12.64774 | 16 ft | 3 kts | 178° |
| 2026-05-05 17:55 | 55.62504 | 12.64775 | 16 ft | 3 kts | 178° |
| 2026-05-05 17:55 | 55.62501 | 12.64775 | 16 ft | 0 kts | 178° |
| 2026-05-05 17:57 | 55.62460 | 12.64778 | 16 ft | 13 kts | 176° |
| 2026-05-05 17:57 | 55.62370 | 12.64783 | 16 ft | 12 kts | 178° |
| 2026-05-05 17:57 | 55.62284 | 12.64789 | 17 ft | 13 kts | 176° |
| 2026-05-05 17:58 | 55.62200 | 12.64761 | 17 ft | 12 kts | 207° |
| 2026-05-05 17:58 | 55.62131 | 12.64684 | 18 ft | 13 kts | 213° |
| 2026-05-05 17:58 | 55.62052 | 12.64593 | 16 ft | 14 kts | 213° |
| 2026-05-05 17:58 | 55.61967 | 12.64514 | 16 ft | 15 kts | 196° |
| 2026-05-05 17:59 | 55.61853 | 12.64523 | 19 ft | 18 kts | 171° |
| 2026-05-05 17:59 | 55.61729 | 12.64565 | 16 ft | 18 kts | 169° |
| 2026-05-05 17:59 | 55.61620 | 12.64507 | 16 ft | 16 kts | 212° |
| 2026-05-05 17:59 | 55.61521 | 12.64390 | 16 ft | 19 kts | 212° |
| 2026-05-05 18:00 | 55.61396 | 12.64248 | 16 ft | 22 kts | 213° |
| 2026-05-05 18:00 | 55.61271 | 12.64105 | 16 ft | 21 kts | 211° |
| 2026-05-05 18:00 | 55.61152 | 12.63971 | 17 ft | 20 kts | 215° |
| 2026-05-05 18:00 | 55.61042 | 12.63841 | 16 ft | 18 kts | 212° |
| 2026-05-05 18:01 | 55.60937 | 12.63721 | 17 ft | 18 kts | 213° |
| 2026-05-05 18:01 | 55.60836 | 12.63611 | 16 ft | 17 kts | 200° |
| 2026-05-05 18:01 | 55.60741 | 12.63683 | 18 ft | 15 kts | 134° |
| 2026-05-05 18:01 | 55.60683 | 12.63826 | 19 ft | 14 kts | 101° |
| 2026-05-05 18:02 | 55.60751 | 12.63987 | 18 ft | 25 kts | 41° |
| 2026-05-05 18:02 | 55.60998 | 12.64369 | 16 ft | 74 kts | 41° |
| 2026-05-05 18:02 | 55.61523 | 12.65181 | 16 ft | 124 kts | 41° |
| 2026-05-05 18:02 | 55.62272 | 12.66329 | 133 ft | 153 kts | 39° |
| 2026-05-05 18:03 | 55.63059 | 12.67699 | 532 ft | 162 kts | 42° |
| 2026-05-05 18:03 | 55.63874 | 12.69056 | 1231 ft | 156 kts | 39° |
| 2026-05-05 18:03 | 55.64741 | 12.70342 | 1656 ft | 171 kts | 37° |
| 2026-05-05 18:03 | 55.65696 | 12.71741 | 2019 ft | 185 kts | 45° |
| 2026-05-05 18:04 | 55.66308 | 12.73864 | 2335 ft | 205 kts | 76° |
| 2026-05-05 18:04 | 55.66083 | 12.76403 | 2681 ft | 227 kts | 120° |
| 2026-05-05 18:04 | 55.64744 | 12.78136 | 2946 ft | 257 kts | 167° |
| 2026-05-05 18:04 | 55.62956 | 12.78061 | 3917 ft | 255 kts | 189° |
| 2026-05-05 18:05 | 55.61241 | 12.77596 | 4951 ft | 250 kts | 184° |
| 2026-05-05 18:05 | 55.59481 | 12.77569 | 5714 ft | 259 kts | 176° |
| 2026-05-05 18:05 | 55.57626 | 12.77727 | 6281 ft | 273 kts | 179° |
| 2026-05-05 18:05 | 55.55711 | 12.77720 | 7099 ft | 274 kts | 183° |
| 2026-05-05 18:06 | 55.53842 | 12.77507 | 8142 ft | 267 kts | 188° |
| 2026-05-05 18:06 | 55.52593 | 12.77065 | 8448 ft | 278 kts | 201° |
| 2026-05-05 18:06 | 55.50470 | 12.74570 | 9538 ft | 276 kts | 226° |
| 2026-05-05 18:06 | 55.49192 | 12.72049 | 10292 ft | 280 kts | 231° |
| 2026-05-05 18:07 | 55.47868 | 12.69373 | 10665 ft | 298 kts | 231° |
| 2026-05-05 18:07 | 55.46496 | 12.66563 | 11049 ft | 314 kts | 232° |
| 2026-05-05 18:07 | 55.45031 | 12.63501 | 11427 ft | 331 kts | 232° |
| 2026-05-05 18:07 | 55.43524 | 12.60324 | 11937 ft | 342 kts | 232° |
| 2026-05-05 18:08 | 55.41986 | 12.57089 | 12674 ft | 347 kts | 232° |
| 2026-05-05 18:08 | 55.40422 | 12.53824 | 13491 ft | 350 kts | 232° |
| 2026-05-05 18:08 | 55.38864 | 12.50582 | 14246 ft | 353 kts | 232° |
| 2026-05-05 18:08 | 55.37253 | 12.47234 | 15012 ft | 355 kts | 232° |
| 2026-05-05 18:09 | 55.35647 | 12.43896 | 15773 ft | 359 kts | 232° |
| 2026-05-05 18:09 | 55.33937 | 12.40668 | 16497 ft | 364 kts | 224° |
| 2026-05-05 18:09 | 55.31987 | 12.37803 | 17239 ft | 368 kts | 223° |
| 2026-05-05 18:09 | 55.30012 | 12.34986 | 17968 ft | 371 kts | 222° |
| 2026-05-05 18:10 | 55.27977 | 12.32165 | 18618 ft | 374 kts | 221° |
| 2026-05-05 18:10 | 55.25912 | 12.29330 | 19238 ft | 377 kts | 221° |
| 2026-05-05 18:10 | 55.23846 | 12.26478 | 19857 ft | 380 kts | 222° |
| 2026-05-05 18:10 | 55.21771 | 12.23591 | 20468 ft | 382 kts | 222° |
| 2026-05-05 18:11 | 55.19683 | 12.20678 | 21074 ft | 385 kts | 222° |
| 2026-05-05 18:11 | 55.17583 | 12.17756 | 21662 ft | 387 kts | 222° |
| 2026-05-05 18:11 | 55.15463 | 12.14820 | 22224 ft | 390 kts | 222° |
| 2026-05-05 18:11 | 55.13324 | 12.11867 | 22793 ft | 392 kts | 222° |
| 2026-05-05 18:12 | 55.11152 | 12.08871 | 23357 ft | 395 kts | 222° |
| 2026-05-05 18:12 | 55.09013 | 12.05924 | 23826 ft | 397 kts | 222° |
| 2026-05-05 18:12 | 55.06838 | 12.02929 | 24265 ft | 399 kts | 222° |
| 2026-05-05 18:12 | 55.04652 | 11.99923 | 24701 ft | 401 kts | 222° |
| 2026-05-05 18:13 | 55.02450 | 11.96900 | 25129 ft | 402 kts | 222° |
| 2026-05-05 18:13 | 55.00248 | 11.93881 | 25538 ft | 404 kts | 222° |
| 2026-05-05 18:13 | 54.98031 | 11.90846 | 25934 ft | 406 kts | 222° |
| 2026-05-05 18:13 | 54.95802 | 11.87799 | 26319 ft | 408 kts | 222° |
| 2026-05-05 18:14 | 54.93563 | 11.84744 | 26679 ft | 409 kts | 222° |
| 2026-05-05 18:14 | 54.91326 | 11.81697 | 27092 ft | 409 kts | 222° |
| 2026-05-05 18:14 | 54.89081 | 11.78641 | 27472 ft | 410 kts | 222° |
| 2026-05-05 18:14 | 54.86827 | 11.75577 | 27834 ft | 412 kts | 222° |
| 2026-05-05 18:15 | 54.84385 | 11.72891 | 28214 ft | 419 kts | 210° |
| 2026-05-05 18:15 | 54.81697 | 11.70869 | 28552 ft | 422 kts | 208° |
| 2026-05-05 18:15 | 54.78966 | 11.68959 | 28877 ft | 425 kts | 207° |
| 2026-05-05 18:15 | 54.76200 | 11.67148 | 29344 ft | 423 kts | 206° |
| 2026-05-05 18:16 | 54.73448 | 11.65377 | 29853 ft | 421 kts | 206° |
| 2026-05-05 18:16 | 54.70721 | 11.63579 | 30283 ft | 418 kts | 207° |
| 2026-05-05 18:16 | 54.68055 | 11.61771 | 30632 ft | 416 kts | 207° |
| 2026-05-05 18:16 | 54.65333 | 11.59913 | 30998 ft | 415 kts | 207° |
| 2026-05-05 18:17 | 54.62646 | 11.58096 | 31351 ft | 414 kts | 207° |
| 2026-05-05 18:17 | 54.59959 | 11.56301 | 31699 ft | 414 kts | 207° |
| 2026-05-05 18:17 | 54.57276 | 11.54522 | 32052 ft | 413 kts | 207° |
| 2026-05-05 18:17 | 54.54595 | 11.52741 | 32391 ft | 412 kts | 207° |
| 2026-05-05 18:18 | 54.51947 | 11.50977 | 32727 ft | 412 kts | 207° |
| 2026-05-05 18:18 | 54.49276 | 11.49196 | 33066 ft | 411 kts | 207° |
| 2026-05-05 18:18 | 54.46604 | 11.47419 | 33394 ft | 411 kts | 207° |
| 2026-05-05 18:18 | 54.43944 | 11.45654 | 33787 ft | 408 kts | 206° |
| 2026-05-05 18:19 | 54.41296 | 11.43904 | 34146 ft | 406 kts | 206° |
| 2026-05-05 18:19 | 54.39552 | 11.42751 | 34327 ft | 405 kts | 206° |
| 2026-05-05 18:19 | 54.36915 | 11.41006 | 34566 ft | 406 kts | 206° |
| 2026-05-05 18:19 | 54.34271 | 11.39259 | 34789 ft | 407 kts | 206° |
| 2026-05-05 18:20 | 54.31626 | 11.37514 | 35032 ft | 407 kts | 206° |
| 2026-05-05 18:20 | 54.28979 | 11.35774 | 35252 ft | 408 kts | 206° |
| 2026-05-05 18:20 | 54.26319 | 11.34029 | 35466 ft | 409 kts | 206° |
| 2026-05-05 18:20 | 54.23664 | 11.32288 | 35680 ft | 409 kts | 206° |
| 2026-05-05 18:21 | 54.20999 | 11.30540 | 35884 ft | 409 kts | 205° |
| 2026-05-05 18:21 | 54.18340 | 11.28800 | 36146 ft | 409 kts | 205° |
| 2026-05-05 18:21 | 54.15679 | 11.27061 | 36359 ft | 409 kts | 205° |
| 2026-05-05 18:21 | 54.13013 | 11.25321 | 36561 ft | 410 kts | 205° |
| 2026-05-05 18:22 | 54.10344 | 11.23581 | 36758 ft | 411 kts | 205° |
| 2026-05-05 18:22 | 54.07673 | 11.21843 | 36950 ft | 411 kts | 205° |
| 2026-05-05 18:22 | 54.04999 | 11.20105 | 37148 ft | 412 kts | 205° |
| 2026-05-05 18:22 | 54.02308 | 11.18359 | 37330 ft | 413 kts | 205° |
| 2026-05-05 18:23 | 53.99620 | 11.16617 | 37522 ft | 414 kts | 205° |
| 2026-05-05 18:23 | 53.96925 | 11.14873 | 37687 ft | 414 kts | 204° |
| 2026-05-05 18:23 | 53.94228 | 11.13130 | 37849 ft | 415 kts | 204° |
| 2026-05-05 18:24 | 53.88788 | 11.09619 | 37915 ft | 421 kts | 204° |
| 2026-05-05 18:24 | 53.83291 | 11.06085 | 37924 ft | 423 kts | 204° |
| 2026-05-05 18:25 | 53.77771 | 11.02546 | 37923 ft | 425 kts | 204° |
| 2026-05-05 18:25 | 53.72259 | 10.99021 | 37911 ft | 422 kts | 204° |
| 2026-05-05 18:26 | 53.66768 | 10.95521 | 37921 ft | 419 kts | 204° |
| 2026-05-05 18:26 | 53.61322 | 10.92055 | 37917 ft | 418 kts | 204° |
| 2026-05-05 18:27 | 53.55881 | 10.88603 | 37917 ft | 418 kts | 204° |
| 2026-05-05 18:27 | 53.50434 | 10.85160 | 37914 ft | 418 kts | 204° |
| 2026-05-05 18:28 | 53.42258 | 10.80006 | 37903 ft | 419 kts | 204° |
| 2026-05-05 18:28 | 53.36789 | 10.76571 | 37902 ft | 419 kts | 204° |
| 2026-05-05 18:29 | 53.31321 | 10.73146 | 37904 ft | 419 kts | 204° |
| 2026-05-05 18:29 | 53.25891 | 10.69753 | 37888 ft | 419 kts | 203° |
| 2026-05-05 18:30 | 53.20423 | 10.66348 | 37897 ft | 418 kts | 203° |
| 2026-05-05 18:30 | 53.14961 | 10.62955 | 37901 ft | 419 kts | 203° |
| 2026-05-05 18:31 | 53.09499 | 10.59569 | 37900 ft | 418 kts | 203° |
| 2026-05-05 18:31 | 53.04035 | 10.56195 | 37895 ft | 419 kts | 203° |
| 2026-05-05 18:32 | 52.98564 | 10.52822 | 37902 ft | 419 kts | 203° |
| 2026-05-05 18:32 | 52.93089 | 10.49456 | 37895 ft | 419 kts | 203° |
| 2026-05-05 18:33 | 52.87619 | 10.46104 | 37896 ft | 419 kts | 203° |
| 2026-05-05 18:33 | 52.82138 | 10.42752 | 37899 ft | 420 kts | 203° |
| 2026-05-05 18:34 | 52.76667 | 10.39417 | 37892 ft | 418 kts | 203° |
| 2026-05-05 18:34 | 52.71203 | 10.36095 | 37890 ft | 418 kts | 203° |
| 2026-05-05 18:35 | 52.65728 | 10.32775 | 37882 ft | 418 kts | 203° |
| 2026-05-05 18:35 | 52.60298 | 10.29492 | 37877 ft | 418 kts | 203° |
| 2026-05-05 18:36 | 52.54825 | 10.26191 | 37860 ft | 418 kts | 202° |
| 2026-05-05 18:36 | 52.49368 | 10.22908 | 37867 ft | 417 kts | 202° |
| 2026-05-05 18:37 | 52.43909 | 10.19632 | 37868 ft | 417 kts | 202° |
| 2026-05-05 18:37 | 52.38456 | 10.16369 | 37866 ft | 417 kts | 202° |
| 2026-05-05 18:38 | 52.32993 | 10.13109 | 37848 ft | 418 kts | 202° |
| 2026-05-05 18:38 | 52.27537 | 10.09862 | 37862 ft | 417 kts | 202° |
| 2026-05-05 18:39 | 52.22083 | 10.06624 | 37858 ft | 417 kts | 202° |
| 2026-05-05 18:39 | 52.16627 | 10.03394 | 37856 ft | 417 kts | 202° |
| 2026-05-05 18:40 | 52.11173 | 10.00171 | 37857 ft | 417 kts | 202° |
| 2026-05-05 18:40 | 52.05714 | 9.96957 | 37846 ft | 416 kts | 201° |
| 2026-05-05 18:41 | 52.00261 | 9.93753 | 37847 ft | 417 kts | 201° |
| 2026-05-05 18:41 | 51.94799 | 9.90551 | 37849 ft | 416 kts | 201° |
| 2026-05-05 18:42 | 51.89336 | 9.87358 | 37850 ft | 417 kts | 201° |
| 2026-05-05 18:42 | 51.83874 | 9.84174 | 37835 ft | 416 kts | 201° |
| 2026-05-05 18:43 | 51.78412 | 9.80999 | 37838 ft | 417 kts | 201° |
| 2026-05-05 18:43 | 51.72954 | 9.77833 | 37835 ft | 417 kts | 201° |
| 2026-05-05 18:44 | 51.67481 | 9.74667 | 37835 ft | 417 kts | 201° |
| 2026-05-05 18:44 | 51.62019 | 9.71514 | 37823 ft | 417 kts | 200° |
| 2026-05-05 18:45 | 51.56549 | 9.68367 | 37819 ft | 418 kts | 200° |
| 2026-05-05 18:45 | 51.51078 | 9.65228 | 37825 ft | 417 kts | 200° |
| 2026-05-05 18:46 | 51.45596 | 9.62089 | 37827 ft | 419 kts | 200° |
| 2026-05-05 18:46 | 51.40085 | 9.58940 | 37824 ft | 422 kts | 200° |
| 2026-05-05 18:47 | 51.34561 | 9.55794 | 37818 ft | 420 kts | 200° |
| 2026-05-05 18:47 | 51.28903 | 9.53530 | 37819 ft | 419 kts | 193° |
| 2026-05-05 18:48 | 51.23177 | 9.51651 | 37815 ft | 420 kts | 192° |
| 2026-05-05 18:48 | 51.17446 | 9.49799 | 37822 ft | 420 kts | 192° |
| 2026-05-05 18:49 | 51.11729 | 9.47893 | 37813 ft | 419 kts | 192° |
| 2026-05-05 18:49 | 51.06005 | 9.46012 | 37810 ft | 420 kts | 192° |
| 2026-05-05 18:50 | 51.00270 | 9.44140 | 37819 ft | 420 kts | 192° |
| 2026-05-05 18:50 | 50.94534 | 9.42262 | 37817 ft | 421 kts | 192° |
| 2026-05-05 18:51 | 50.89762 | 9.40706 | 37820 ft | 421 kts | 192° |
| 2026-05-05 18:51 | 50.84011 | 9.38835 | 37824 ft | 422 kts | 192° |
| 2026-05-05 18:52 | 50.78262 | 9.36968 | 37816 ft | 421 kts | 192° |
| 2026-05-05 18:52 | 50.72517 | 9.35109 | 37823 ft | 421 kts | 192° |
| 2026-05-05 18:53 | 50.66775 | 9.33256 | 37826 ft | 421 kts | 192° |
| 2026-05-05 18:53 | 50.61023 | 9.31403 | 37820 ft | 421 kts | 192° |
| 2026-05-05 18:54 | 50.55285 | 9.29562 | 37825 ft | 421 kts | 192° |
| 2026-05-05 18:54 | 50.49530 | 9.27717 | 37821 ft | 422 kts | 192° |
| 2026-05-05 18:55 | 50.43754 | 9.25867 | 37834 ft | 423 kts | 192° |
| 2026-05-05 18:55 | 50.37989 | 9.24029 | 37838 ft | 423 kts | 192° |
| 2026-05-05 18:56 | 50.32214 | 9.22194 | 37836 ft | 423 kts | 192° |
| 2026-05-05 18:56 | 50.26446 | 9.20363 | 37827 ft | 423 kts | 192° |
| 2026-05-05 18:57 | 50.20647 | 9.18528 | 37837 ft | 426 kts | 192° |
| 2026-05-05 18:57 | 50.14831 | 9.16691 | 37836 ft | 426 kts | 192° |
| 2026-05-05 18:58 | 50.09059 | 9.14872 | 37838 ft | 426 kts | 192° |
| 2026-05-05 18:58 | 50.03250 | 9.13049 | 37844 ft | 426 kts | 192° |
| 2026-05-05 18:59 | 49.97433 | 9.11226 | 37849 ft | 427 kts | 192° |
| 2026-05-05 18:59 | 49.91599 | 9.09400 | 37848 ft | 426 kts | 192° |
| 2026-05-05 19:00 | 49.85761 | 9.07581 | 37858 ft | 426 kts | 192° |
| 2026-05-05 19:00 | 49.79968 | 9.05778 | 37850 ft | 426 kts | 192° |
| 2026-05-05 19:01 | 49.74148 | 9.03971 | 37855 ft | 426 kts | 192° |
| 2026-05-05 19:01 | 49.68325 | 9.02169 | 37851 ft | 427 kts | 192° |
| 2026-05-05 19:02 | 49.62483 | 9.00366 | 37492 ft | 433 kts | 191° |
| 2026-05-05 19:02 | 49.59527 | 8.99454 | 36942 ft | 433 kts | 191° |
| 2026-05-05 19:02 | 49.56578 | 8.98546 | 36383 ft | 432 kts | 191° |
| 2026-05-05 19:03 | 49.53631 | 8.97639 | 35852 ft | 431 kts | 190° |
| 2026-05-05 19:03 | 49.50692 | 8.96736 | 35330 ft | 430 kts | 190° |
| 2026-05-05 19:03 | 49.47759 | 8.95836 | 34820 ft | 429 kts | 189° |
| 2026-05-05 19:03 | 49.44834 | 8.94940 | 34329 ft | 428 kts | 189° |
| 2026-05-05 19:04 | 49.41921 | 8.94049 | 33843 ft | 426 kts | 189° |
| 2026-05-05 19:04 | 49.39013 | 8.93160 | 33279 ft | 425 kts | 189° |
| 2026-05-05 19:04 | 49.36116 | 8.92276 | 32712 ft | 424 kts | 189° |
| 2026-05-05 19:04 | 49.33222 | 8.91394 | 32159 ft | 423 kts | 189° |
| 2026-05-05 19:05 | 49.30336 | 8.90514 | 31618 ft | 423 kts | 189° |
| 2026-05-05 19:05 | 49.27450 | 8.89636 | 31078 ft | 421 kts | 189° |
| 2026-05-05 19:05 | 49.24570 | 8.88763 | 30564 ft | 421 kts | 189° |
| 2026-05-05 19:05 | 49.21698 | 8.87894 | 30053 ft | 420 kts | 189° |
| 2026-05-05 19:06 | 49.18832 | 8.87026 | 29480 ft | 419 kts | 189° |
| 2026-05-05 19:06 | 49.15970 | 8.86159 | 28893 ft | 418 kts | 190° |
| 2026-05-05 19:06 | 49.13124 | 8.85297 | 28313 ft | 416 kts | 191° |
| 2026-05-05 19:06 | 49.10290 | 8.84440 | 27738 ft | 417 kts | 191° |
| 2026-05-05 19:07 | 49.07401 | 8.83568 | 27203 ft | 427 kts | 191° |
| 2026-05-05 19:07 | 49.04478 | 8.82689 | 26653 ft | 429 kts | 191° |
| 2026-05-05 19:07 | 49.01565 | 8.81812 | 26184 ft | 421 kts | 191° |
| 2026-05-05 19:07 | 48.98729 | 8.80958 | 25727 ft | 410 kts | 191° |
| 2026-05-05 19:08 | 48.95956 | 8.80125 | 25283 ft | 399 kts | 191° |
| 2026-05-05 19:08 | 48.93267 | 8.79319 | 24840 ft | 388 kts | 191° |
| 2026-05-05 19:08 | 48.90642 | 8.78535 | 24415 ft | 384 kts | 191° |
| 2026-05-05 19:08 | 48.88028 | 8.77753 | 23995 ft | 382 kts | 191° |
| 2026-05-05 19:09 | 48.85421 | 8.77018 | 23623 ft | 379 kts | 189° |
| 2026-05-05 19:09 | 48.82844 | 8.76343 | 23349 ft | 372 kts | 189° |
| 2026-05-05 19:09 | 48.80301 | 8.75690 | 23000 ft | 367 kts | 189° |
| 2026-05-05 19:09 | 48.77795 | 8.75029 | 22671 ft | 363 kts | 190° |
| 2026-05-05 19:10 | 48.75315 | 8.74364 | 22354 ft | 359 kts | 190° |
| 2026-05-05 19:10 | 48.72868 | 8.73704 | 22037 ft | 356 kts | 190° |
| 2026-05-05 19:10 | 48.70438 | 8.73051 | 21723 ft | 353 kts | 190° |
| 2026-05-05 19:10 | 48.68019 | 8.72404 | 21396 ft | 351 kts | 190° |
| 2026-05-05 19:11 | 48.65620 | 8.71766 | 21090 ft | 349 kts | 190° |
| 2026-05-05 19:11 | 48.63237 | 8.71132 | 20770 ft | 347 kts | 191° |
| 2026-05-05 19:11 | 48.60864 | 8.70501 | 20474 ft | 345 kts | 191° |
| 2026-05-05 19:11 | 48.58531 | 8.69880 | 20177 ft | 343 kts | 191° |
| 2026-05-05 19:12 | 48.56188 | 8.69257 | 19888 ft | 341 kts | 191° |
| 2026-05-05 19:12 | 48.53849 | 8.68635 | 19595 ft | 341 kts | 191° |
| 2026-05-05 19:12 | 48.51511 | 8.68015 | 19303 ft | 342 kts | 191° |
| 2026-05-05 19:12 | 48.49163 | 8.67393 | 19021 ft | 342 kts | 191° |
| 2026-05-05 19:13 | 48.46788 | 8.66764 | 18736 ft | 342 kts | 191° |
| 2026-05-05 19:13 | 48.44444 | 8.66145 | 18446 ft | 341 kts | 192° |
| 2026-05-05 19:13 | 48.42108 | 8.65528 | 18166 ft | 340 kts | 192° |
| 2026-05-05 19:13 | 48.39779 | 8.64912 | 17889 ft | 339 kts | 192° |
| 2026-05-05 19:14 | 48.37491 | 8.64305 | 17883 ft | 339 kts | 192° |
| 2026-05-05 19:14 | 48.35163 | 8.63630 | 17879 ft | 342 kts | 193° |
| 2026-05-05 19:14 | 48.32836 | 8.62905 | 17872 ft | 340 kts | 193° |
| 2026-05-05 19:14 | 48.30491 | 8.62166 | 17871 ft | 340 kts | 193° |
| 2026-05-05 19:15 | 48.28197 | 8.61461 | 17872 ft | 341 kts | 193° |
| 2026-05-05 19:15 | 48.25869 | 8.60763 | 17879 ft | 341 kts | 193° |
| 2026-05-05 19:15 | 48.23541 | 8.60072 | 17877 ft | 341 kts | 193° |
| 2026-05-05 19:15 | 48.21184 | 8.59371 | 17863 ft | 340 kts | 193° |
| 2026-05-05 19:16 | 48.18864 | 8.58674 | 17867 ft | 341 kts | 193° |
| 2026-05-05 19:16 | 48.16534 | 8.57971 | 17867 ft | 341 kts | 193° |
| 2026-05-05 19:16 | 48.14239 | 8.57282 | 17876 ft | 340 kts | 193° |
| 2026-05-05 19:16 | 48.11924 | 8.56592 | 17667 ft | 338 kts | 193° |
| 2026-05-05 19:17 | 48.09592 | 8.55900 | 17393 ft | 335 kts | 193° |
| 2026-05-05 19:17 | 48.07314 | 8.55224 | 16957 ft | 332 kts | 193° |
| 2026-05-05 19:17 | 48.05073 | 8.54559 | 16893 ft | 324 kts | 193° |
| 2026-05-05 19:17 | 48.02875 | 8.53906 | 16887 ft | 323 kts | 193° |
| 2026-05-05 19:18 | 48.00648 | 8.53242 | 16894 ft | 330 kts | 193° |
| 2026-05-05 19:18 | 47.98383 | 8.52568 | 16895 ft | 332 kts | 193° |
| 2026-05-05 19:18 | 47.96090 | 8.52185 | 16887 ft | 334 kts | 180° |
| 2026-05-05 19:18 | 47.93790 | 8.52802 | 16897 ft | 341 kts | 163° |
| 2026-05-05 19:19 | 47.91689 | 8.54498 | 16898 ft | 347 kts | 146° |
| 2026-05-05 19:19 | 47.89823 | 8.56710 | 16890 ft | 338 kts | 144° |
| 2026-05-05 19:19 | 47.88037 | 8.58925 | 16892 ft | 329 kts | 144° |
| 2026-05-05 19:19 | 47.86299 | 8.61090 | 16894 ft | 324 kts | 144° |
| 2026-05-05 19:20 | 47.84567 | 8.63217 | 16884 ft | 322 kts | 144° |
| 2026-05-05 19:20 | 47.82834 | 8.65316 | 16887 ft | 321 kts | 145° |
| 2026-05-05 19:20 | 47.81102 | 8.67403 | 16893 ft | 320 kts | 145° |
| 2026-05-05 19:20 | 47.79374 | 8.69489 | 16892 ft | 320 kts | 144° |
| 2026-05-05 19:21 | 47.77640 | 8.71589 | 16897 ft | 321 kts | 144° |
| 2026-05-05 19:21 | 47.75914 | 8.73682 | 16897 ft | 320 kts | 144° |
| 2026-05-05 19:21 | 47.74192 | 8.75767 | 16901 ft | 320 kts | 144° |
| 2026-05-05 19:21 | 47.72461 | 8.77858 | 16899 ft | 320 kts | 145° |
| 2026-05-05 19:22 | 47.70731 | 8.79944 | 16896 ft | 320 kts | 145° |
| 2026-05-05 19:22 | 47.69005 | 8.82024 | 16892 ft | 320 kts | 145° |
| 2026-05-05 19:22 | 47.67276 | 8.84106 | 16903 ft | 320 kts | 145° |
| 2026-05-05 19:22 | 47.65547 | 8.86185 | 16901 ft | 321 kts | 144° |
| 2026-05-05 19:23 | 47.64396 | 8.87570 | 16890 ft | 321 kts | 144° |
| 2026-05-05 19:23 | 47.62700 | 8.89738 | 16888 ft | 323 kts | 137° |
| 2026-05-05 19:23 | 47.61354 | 8.92424 | 16896 ft | 329 kts | 122° |
| 2026-05-05 19:23 | 47.60271 | 8.95432 | 16908 ft | 330 kts | 121° |
| 2026-05-05 19:24 | 47.59221 | 8.98446 | 16900 ft | 329 kts | 120° |
| 2026-05-05 19:24 | 47.58186 | 9.01455 | 16894 ft | 324 kts | 120° |
| 2026-05-05 19:24 | 47.57350 | 9.04504 | 16868 ft | 315 kts | 105° |
| 2026-05-05 19:24 | 47.57025 | 9.07666 | 16884 ft | 307 kts | 101° |
| 2026-05-05 19:25 | 47.56736 | 9.10759 | 16846 ft | 301 kts | 101° |
| 2026-05-05 19:25 | 47.56441 | 9.13845 | 16584 ft | 301 kts | 101° |
| 2026-05-05 19:25 | 47.56150 | 9.16890 | 16327 ft | 297 kts | 101° |
| 2026-05-05 19:25 | 47.55879 | 9.19899 | 16071 ft | 294 kts | 96° |
| 2026-05-05 19:26 | 47.56029 | 9.22906 | 15826 ft | 294 kts | 77° |
| 2026-05-05 19:26 | 47.56817 | 9.25672 | 15575 ft | 291 kts | 56° |
| 2026-05-05 19:26 | 47.58165 | 9.27875 | 15342 ft | 288 kts | 36° |
| 2026-05-05 19:26 | 47.59896 | 9.29282 | 15102 ft | 282 kts | 15° |
| 2026-05-05 19:27 | 47.61797 | 9.29791 | 14859 ft | 275 kts | 356° |
| 2026-05-05 19:27 | 47.63667 | 9.29413 | 14637 ft | 268 kts | 338° |
| 2026-05-05 19:27 | 47.65324 | 9.28253 | 14403 ft | 260 kts | 321° |
| 2026-05-05 19:27 | 47.66641 | 9.26473 | 14182 ft | 254 kts | 304° |
| 2026-05-05 19:28 | 47.67540 | 9.24261 | 13949 ft | 248 kts | 288° |
| 2026-05-05 19:28 | 47.67976 | 9.21824 | 13721 ft | 242 kts | 272° |
| 2026-05-05 19:28 | 47.67944 | 9.19365 | 13467 ft | 238 kts | 258° |
| 2026-05-05 19:28 | 47.67477 | 9.17032 | 13209 ft | 235 kts | 244° |
| 2026-05-05 19:29 | 47.66614 | 9.14976 | 12953 ft | 235 kts | 230° |
| 2026-05-05 19:29 | 47.65419 | 9.13336 | 12696 ft | 235 kts | 217° |
| 2026-05-05 19:29 | 47.64030 | 9.12044 | 12434 ft | 237 kts | 211° |
| 2026-05-05 19:29 | 47.62554 | 9.10906 | 12179 ft | 239 kts | 209° |
| 2026-05-05 19:30 | 47.61069 | 9.09813 | 11922 ft | 237 kts | 210° |
| 2026-05-05 19:30 | 47.59720 | 9.08453 | 11659 ft | 233 kts | 227° |
| 2026-05-05 19:30 | 47.58959 | 9.06364 | 11449 ft | 235 kts | 257° |
| 2026-05-05 19:30 | 47.59056 | 9.03927 | 11228 ft | 245 kts | 285° |
| 2026-05-05 19:31 | 47.59763 | 9.01595 | 11002 ft | 251 kts | 293° |
| 2026-05-05 19:31 | 47.60571 | 8.99304 | 10761 ft | 249 kts | 294° |
| 2026-05-05 19:31 | 47.61255 | 8.96977 | 10520 ft | 243 kts | 279° |
| 2026-05-05 19:31 | 47.61543 | 8.94521 | 10291 ft | 242 kts | 274° |
| 2026-05-05 19:32 | 47.61762 | 8.92047 | 10023 ft | 242 kts | 274° |
| 2026-05-05 19:32 | 47.61695 | 8.89599 | 9722 ft | 236 kts | 251° |
| 2026-05-05 19:32 | 47.61102 | 8.87343 | 9431 ft | 235 kts | 245° |
| 2026-05-05 19:32 | 47.60426 | 8.85150 | 9153 ft | 234 kts | 244° |
| 2026-05-05 19:33 | 47.59741 | 8.82974 | 8922 ft | 231 kts | 244° |
| 2026-05-05 19:33 | 47.59062 | 8.80831 | 8944 ft | 229 kts | 244° |
| 2026-05-05 19:33 | 47.58393 | 8.78716 | 8940 ft | 225 kts | 244° |
| 2026-05-05 19:33 | 47.57729 | 8.76633 | 8925 ft | 222 kts | 241° |
| 2026-05-05 19:34 | 47.56682 | 8.74971 | 8941 ft | 226 kts | 212° |
| 2026-05-05 19:34 | 47.55142 | 8.74397 | 8948 ft | 236 kts | 182° |
| 2026-05-05 19:34 | 47.53545 | 8.75141 | 8943 ft | 251 kts | 152° |
| 2026-05-05 19:35 | 47.51853 | 8.79689 | 8780 ft | 269 kts | 93° |
| 2026-05-05 19:35 | 47.51998 | 8.82443 | 8559 ft | 267 kts | 85° |
| 2026-05-05 19:35 | 47.52251 | 8.85168 | 8272 ft | 267 kts | 84° |
| 2026-05-05 19:35 | 47.52483 | 8.87886 | 7978 ft | 265 kts | 92° |
| 2026-05-05 19:36 | 47.52084 | 8.90470 | 7730 ft | 254 kts | 123° |
| 2026-05-05 19:36 | 47.50954 | 8.92336 | 7437 ft | 244 kts | 153° |
| 2026-05-05 19:36 | 47.49397 | 8.93070 | 7145 ft | 233 kts | 184° |
| 2026-05-05 19:36 | 47.47845 | 8.92628 | 6981 ft | 222 kts | 201° |
| 2026-05-05 19:37 | 47.46427 | 8.91890 | 6939 ft | 211 kts | 204° |
| 2026-05-05 19:37 | 47.45117 | 8.91071 | 6864 ft | 198 kts | 218° |
| 2026-05-05 19:37 | 47.44322 | 8.89546 | 6801 ft | 184 kts | 247° |
| 2026-05-05 19:37 | 47.43899 | 8.87748 | 6512 ft | 186 kts | 253° |
| 2026-05-05 19:38 | 47.43648 | 8.85888 | 6210 ft | 190 kts | 269° |
| 2026-05-05 19:38 | 47.43732 | 8.83870 | 5703 ft | 203 kts | 274° |
| 2026-05-05 19:38 | 47.43882 | 8.81721 | 5164 ft | 217 kts | 275° |
| 2026-05-05 19:38 | 47.44049 | 8.79437 | 4674 ft | 227 kts | 275° |
| 2026-05-05 19:39 | 47.44221 | 8.77088 | 4319 ft | 231 kts | 275° |
| 2026-05-05 19:39 | 47.44392 | 8.74802 | 3986 ft | 214 kts | 274° |
| 2026-05-05 19:39 | 47.44542 | 8.72728 | 3694 ft | 192 kts | 274° |
| 2026-05-05 19:39 | 47.44675 | 8.70864 | 3450 ft | 170 kts | 273° |
| 2026-05-05 19:40 | 47.44795 | 8.69180 | 3143 ft | 158 kts | 273° |
| 2026-05-05 19:40 | 47.44906 | 8.67620 | 2987 ft | 149 kts | 273° |
| 2026-05-05 19:40 | 47.45016 | 8.66087 | 2759 ft | 149 kts | 273° |
| 2026-05-05 19:40 | 47.45123 | 8.64586 | 2524 ft | 146 kts | 274° |
| 2026-05-05 19:41 | 47.45230 | 8.63094 | 2276 ft | 146 kts | 273° |
| 2026-05-05 19:41 | 47.45335 | 8.61622 | 2108 ft | 144 kts | 274° |
| 2026-05-05 19:41 | 47.45444 | 8.60063 | 1979 ft | 164 kts | 274° |
| 2026-05-05 19:41 | 47.45558 | 8.58380 | 2400 ft | 168 kts | 274° |
| 2026-05-05 19:42 | 47.45684 | 8.56664 | 3177 ft | 167 kts | 274° |
| 2026-05-05 19:42 | 47.45806 | 8.54991 | 4102 ft | 160 kts | 273° |
| 2026-05-05 19:42 | 47.45923 | 8.53364 | 5004 ft | 158 kts | 272° |
| 2026-05-05 19:42 | 47.46037 | 8.51744 | 5822 ft | 159 kts | 272° |
| 2026-05-05 19:43 | 47.46110 | 8.50118 | 6580 ft | 160 kts | 260° |
| 2026-05-05 19:43 | 47.45594 | 8.48655 | 6809 ft | 166 kts | 218° |
| 2026-05-05 19:43 | 47.44553 | 8.48041 | 6948 ft | 166 kts | 201° |
| 2026-05-05 19:43 | 47.43361 | 8.47526 | 7027 ft | 193 kts | 200° |
| 2026-05-05 19:44 | 47.41951 | 8.46921 | 6994 ft | 221 kts | 200° |
| 2026-05-05 19:44 | 47.40485 | 8.46268 | 6941 ft | 221 kts | 206° |
| 2026-05-05 19:44 | 47.39307 | 8.44861 | 6950 ft | 219 kts | 238° |
| 2026-05-05 19:44 | 47.38894 | 8.42725 | 6947 ft | 224 kts | 270° |
| 2026-05-05 19:45 | 47.39326 | 8.40484 | 6952 ft | 231 kts | 288° |
| 2026-05-05 19:45 | 47.39990 | 8.38317 | 6917 ft | 232 kts | 290° |
| 2026-05-05 19:45 | 47.40688 | 8.36179 | 6888 ft | 233 kts | 291° |
| 2026-05-05 19:45 | 47.41378 | 8.34037 | 6887 ft | 228 kts | 290° |
| 2026-05-05 19:46 | 47.42042 | 8.31901 | 7023 ft | 231 kts | 289° |
| 2026-05-05 19:46 | 47.42698 | 8.29741 | 7806 ft | 231 kts | 288° |
| 2026-05-05 19:46 | 47.43361 | 8.27563 | 8587 ft | 234 kts | 288° |
| 2026-05-05 19:46 | 47.44041 | 8.25334 | 8817 ft | 238 kts | 288° |
| 2026-05-05 19:47 | 47.44719 | 8.23129 | 8879 ft | 237 kts | 288° |
| 2026-05-05 19:47 | 47.45397 | 8.20908 | 8902 ft | 236 kts | 288° |
| 2026-05-05 19:47 | 47.46072 | 8.18706 | 8900 ft | 234 kts | 288° |
| 2026-05-05 19:47 | 47.46739 | 8.16532 | 8914 ft | 232 kts | 288° |
| 2026-05-05 19:48 | 47.47404 | 8.14359 | 8913 ft | 232 kts | 288° |
| 2026-05-05 19:48 | 47.48062 | 8.12189 | 8899 ft | 230 kts | 288° |
| 2026-05-05 19:48 | 47.48720 | 8.10028 | 8887 ft | 234 kts | 288° |
| 2026-05-05 19:48 | 47.49389 | 8.07828 | 8881 ft | 231 kts | 288° |
| 2026-05-05 19:49 | 47.50049 | 8.05664 | 8869 ft | 229 kts | 286° |
| 2026-05-05 19:49 | 47.50333 | 8.04166 | 8876 ft | 227 kts | 272° |
| 2026-05-05 19:49 | 47.50190 | 8.01144 | 8917 ft | 221 kts | 256° |
| 2026-05-05 19:49 | 47.49935 | 7.98907 | 8897 ft | 219 kts | 257° |
| 2026-05-05 19:50 | 47.49696 | 7.96684 | 8872 ft | 218 kts | 257° |
| 2026-05-05 19:50 | 47.49452 | 7.94455 | 8906 ft | 221 kts | 257° |
| 2026-05-05 19:50 | 47.49193 | 7.92219 | 8906 ft | 220 kts | 253° |
| 2026-05-05 19:50 | 47.48550 | 7.90207 | 8905 ft | 216 kts | 230° |
| 2026-05-05 19:51 | 47.47358 | 7.88860 | 8937 ft | 221 kts | 205° |
| 2026-05-05 19:51 | 47.45819 | 7.88524 | 8920 ft | 232 kts | 178° |
| 2026-05-05 19:51 | 47.44308 | 7.89450 | 8991 ft | 246 kts | 148° |
| 2026-05-05 19:51 | 47.43286 | 7.91560 | 8977 ft | 264 kts | 112° |
| 2026-05-05 19:52 | 47.43244 | 7.94296 | 8963 ft | 276 kts | 75° |
| 2026-05-05 19:52 | 47.44195 | 7.96746 | 8926 ft | 277 kts | 44° |
| 2026-05-05 19:52 | 47.45774 | 7.98274 | 8949 ft | 271 kts | 18° |
| 2026-05-05 19:52 | 47.47550 | 7.99217 | 8853 ft | 273 kts | 15° |
| 2026-05-05 19:53 | 47.49344 | 8.00066 | 8905 ft | 270 kts | 14° |
| 2026-05-05 19:53 | 47.51128 | 8.00897 | 8908 ft | 271 kts | 13° |
| 2026-05-05 19:53 | 47.52918 | 8.01751 | 8908 ft | 270 kts | 19° |
| 2026-05-05 19:53 | 47.54452 | 8.03369 | 8905 ft | 277 kts | 50° |
| 2026-05-05 19:54 | 47.55137 | 8.05010 | 8926 ft | 280 kts | 70° |
| 2026-05-05 19:54 | 47.55450 | 8.07755 | 8947 ft | 271 kts | 99° |
| 2026-05-05 19:54 | 47.54875 | 8.10401 | 8970 ft | 264 kts | 127° |
| 2026-05-05 19:54 | 47.53849 | 8.12604 | 8945 ft | 258 kts | 133° |
| 2026-05-05 19:55 | 47.52764 | 8.14716 | 8922 ft | 257 kts | 134° |
| 2026-05-05 19:55 | 47.51671 | 8.16822 | 8948 ft | 258 kts | 134° |
| 2026-05-05 19:55 | 47.50579 | 8.18932 | 8893 ft | 257 kts | 134° |
| 2026-05-05 19:55 | 47.49496 | 8.21034 | 8895 ft | 257 kts | 134° |
| 2026-05-05 19:56 | 47.48410 | 8.23139 | 8900 ft | 257 kts | 134° |
| 2026-05-05 19:56 | 47.47324 | 8.25245 | 8880 ft | 257 kts | 134° |
| 2026-05-05 19:56 | 47.46239 | 8.27360 | 8907 ft | 258 kts | 134° |
| 2026-05-05 19:56 | 47.45170 | 8.29442 | 8908 ft | 257 kts | 134° |
| 2026-05-05 19:57 | 47.44085 | 8.31552 | 8899 ft | 258 kts | 134° |
| 2026-05-05 19:57 | 47.43002 | 8.33676 | 8829 ft | 258 kts | 133° |
| 2026-05-05 19:57 | 47.41916 | 8.35746 | 8854 ft | 251 kts | 133° |
| 2026-05-05 19:57 | 47.40828 | 8.37758 | 8881 ft | 252 kts | 134° |
| 2026-05-05 19:58 | 47.39722 | 8.39788 | 8892 ft | 253 kts | 134° |
| 2026-05-05 19:58 | 47.38618 | 8.41816 | 8900 ft | 253 kts | 134° |
| 2026-05-05 19:58 | 47.37511 | 8.43844 | 8925 ft | 254 kts | 134° |
| 2026-05-05 19:58 | 47.36400 | 8.45877 | 8940 ft | 254 kts | 134° |
| 2026-05-05 19:59 | 47.35290 | 8.47902 | 8949 ft | 253 kts | 134° |
| 2026-05-05 19:59 | 47.34255 | 8.50014 | 8950 ft | 259 kts | 120° |
| 2026-05-05 19:59 | 47.33855 | 8.52614 | 8943 ft | 263 kts | 97° |
| 2026-05-05 19:59 | 47.33795 | 8.55371 | 8944 ft | 271 kts | 94° |
| 2026-05-05 20:00 | 47.33777 | 8.58123 | 8939 ft | 266 kts | 94° |
| 2026-05-05 20:00 | 47.33765 | 8.60836 | 8942 ft | 265 kts | 94° |
| 2026-05-05 20:00 | 47.33753 | 8.63572 | 8930 ft | 267 kts | 94° |
| 2026-05-05 20:00 | 47.33738 | 8.66353 | 8956 ft | 282 kts | 94° |
| 2026-05-05 20:01 | 47.33715 | 8.69351 | 8960 ft | 299 kts | 94° |
| 2026-05-05 20:01 | 47.33689 | 8.72403 | 8930 ft | 296 kts | 94° |
| 2026-05-05 20:01 | 47.33663 | 8.75388 | 8887 ft | 285 kts | 93° |
| 2026-05-05 20:01 | 47.33683 | 8.78232 | 8735 ft | 272 kts | 83° |
| 2026-05-05 20:02 | 47.34138 | 8.80870 | 8627 ft | 258 kts | 75° |
| 2026-05-05 20:02 | 47.34673 | 8.83318 | 8572 ft | 242 kts | 74° |
| 2026-05-05 20:02 | 47.35185 | 8.85594 | 8365 ft | 226 kts | 73° |
| 2026-05-05 20:02 | 47.35668 | 8.87740 | 8039 ft | 217 kts | 73° |
| 2026-05-05 20:03 | 47.36135 | 8.89842 | 7594 ft | 215 kts | 73° |
| 2026-05-05 20:03 | 47.36589 | 8.91938 | 7170 ft | 213 kts | 73° |
| 2026-05-05 20:03 | 47.37090 | 8.93987 | 6721 ft | 214 kts | 58° |
| 2026-05-05 20:03 | 47.38151 | 8.95427 | 6292 ft | 206 kts | 20° |
| 2026-05-05 20:04 | 47.39521 | 8.95737 | 5853 ft | 196 kts | 352° |
| 2026-05-05 20:04 | 47.40832 | 8.95291 | 5381 ft | 192 kts | 332° |
| 2026-05-05 20:04 | 47.41940 | 8.94267 | 5030 ft | 186 kts | 313° |
| 2026-05-05 20:04 | 47.42734 | 8.92811 | 5035 ft | 184 kts | 296° |
| 2026-05-05 20:05 | 47.43182 | 8.91075 | 4995 ft | 178 kts | 279° |
| 2026-05-05 20:05 | 47.43331 | 8.89255 | 5019 ft | 179 kts | 275° |
| 2026-05-05 20:05 | 47.43466 | 8.87424 | 5010 ft | 178 kts | 275° |
| 2026-05-05 20:05 | 47.43599 | 8.85608 | 5024 ft | 179 kts | 275° |
| 2026-05-05 20:06 | 47.43733 | 8.83783 | 5006 ft | 178 kts | 275° |
| 2026-05-05 20:06 | 47.43865 | 8.81976 | 5009 ft | 175 kts | 275° |
| 2026-05-05 20:06 | 47.43993 | 8.80225 | 4899 ft | 169 kts | 275° |
| 2026-05-05 20:06 | 47.44115 | 8.78553 | 4640 ft | 159 kts | 275° |
| 2026-05-05 20:07 | 47.44233 | 8.76927 | 4426 ft | 158 kts | 274° |
| 2026-05-05 20:07 | 47.44349 | 8.75334 | 4143 ft | 153 kts | 272° |
| 2026-05-05 20:07 | 47.44462 | 8.73779 | 3955 ft | 156 kts | 272° |
| 2026-05-05 20:07 | 47.44576 | 8.72198 | 3733 ft | 149 kts | 273° |
| 2026-05-05 20:08 | 47.44682 | 8.70737 | 3528 ft | 142 kts | 272° |
| 2026-05-05 20:08 | 47.44787 | 8.69280 | 3260 ft | 138 kts | 273° |
| 2026-05-05 20:08 | 47.44887 | 8.67893 | 3097 ft | 138 kts | 272° |
| 2026-05-05 20:08 | 47.44988 | 8.66481 | 2892 ft | 138 kts | 272° |
| 2026-05-05 20:09 | 47.45089 | 8.65052 | 2676 ft | 141 kts | 272° |
| 2026-05-05 20:09 | 47.45192 | 8.63605 | 2464 ft | 141 kts | 273° |
| 2026-05-05 20:09 | 47.45295 | 8.62182 | 2241 ft | 138 kts | 273° |
| 2026-05-05 20:09 | 47.45398 | 8.60751 | 2046 ft | 145 kts | 275° |
| 2026-05-05 20:10 | 47.45508 | 8.59248 | 1838 ft | 148 kts | 275° |
| 2026-05-05 20:10 | 47.45620 | 8.57733 | 1586 ft | 144 kts | 275° |
| 2026-05-05 20:10 | 47.45720 | 8.56279 | 1414 ft | 135 kts | 278° |
| 2026-05-05 20:10 | 47.45779 | 8.55348 | 1405 ft | 36 kts | 276° |
| 2026-05-05 20:11 | 47.45764 | 8.55143 | 1395 ft | 19 kts | 215° |
| 2026-05-05 20:11 | 47.45679 | 8.55178 | 1404 ft | 11 kts | 154° |
| 2026-05-05 20:11 | 47.45615 | 8.55223 | 1401 ft | 9 kts | 154° |
| 2026-05-05 20:11 | 47.45564 | 8.55259 | 1400 ft | 7 kts | 154° |
| 2026-05-05 20:12 | 47.45524 | 8.55288 | 1398 ft | 6 kts | 154° |
| 2026-05-05 20:12 | 47.45493 | 8.55309 | 1402 ft | 4 kts | 155° |
| 2026-05-05 20:12 | 47.45490 | 8.55312 | 1398 ft | 0 kts | 155° |
| 2026-05-05 20:12 | 47.45489 | 8.55334 | 1408 ft | 3 kts | 73° |
| 2026-05-05 20:13 | 47.45514 | 8.55435 | 1402 ft | 13 kts | 68° |
| 2026-05-05 20:13 | 47.45522 | 8.55546 | 1408 ft | 9 kts | 95° |
| 2026-05-05 20:13 | 47.45513 | 8.55629 | 1410 ft | 9 kts | 117° |
| 2026-05-05 20:13 | 47.45467 | 8.55639 | 1406 ft | 6 kts | 185° |
| 2026-05-05 20:14 | 47.45434 | 8.55635 | 1409 ft | 3 kts | 185° |
| 2026-05-05 20:14 | 47.45432 | 8.55635 | 1406 ft | 0 kts | 185° |